createdAt,value
2022-10-13T00:00:34.217Z,10.50
2022-10-13T00:03:02.147Z,10.60
2022-10-13T00:05:29.809Z,10.80
2022-10-13T00:07:57.386Z,10.80
2022-10-13T00:10:25.017Z,10.90
2022-10-13T00:12:51.924Z,10.90
2022-10-13T00:15:19.861Z,10.80
2022-10-13T00:17:46.658Z,10.70
2022-10-13T00:20:13.564Z,10.70
2022-10-13T00:22:40.248Z,10.70
2022-10-13T00:25:07.439Z,10.70
2022-10-13T00:27:34.155Z,10.80
2022-10-13T00:30:00.868Z,10.50
2022-10-13T00:32:27.763Z,10.30
2022-10-13T00:34:54.436Z,10.40
2022-10-13T00:37:21.093Z,10.60
2022-10-13T00:39:47.900Z,10.70
2022-10-13T00:42:14.556Z,10.80
2022-10-13T00:45:02.334Z,10.90
2022-10-13T00:47:34.890Z,11.00
2022-10-13T00:50:02.863Z,11.10
2022-10-13T00:52:31.410Z,11.00
2022-10-13T00:55:00.031Z,10.90
2022-10-13T00:57:26.965Z,10.80
2022-10-13T00:59:54.001Z,10.70
2022-10-13T01:02:21.367Z,10.90
2022-10-13T01:04:48.785Z,11.10
2022-10-13T01:07:18.509Z,11.20
2022-10-13T01:09:45.266Z,11.00
2022-10-13T01:12:23.729Z,11.10
2022-10-13T01:14:56.404Z,11.20
2022-10-13T01:17:57.053Z,11.00
2022-10-13T01:20:39.588Z,10.90
2022-10-13T01:23:24.281Z,11.00
2022-10-13T01:26:21.760Z,11.00
2022-10-13T01:29:07.007Z,10.80
2022-10-13T01:32:18.082Z,11.00
2022-10-13T01:34:59.602Z,11.10
2022-10-13T01:38:01.941Z,11.10
2022-10-13T01:40:37.620Z,11.00
2022-10-13T01:43:31.033Z,11.10
2022-10-13T01:46:33.526Z,11.00
2022-10-13T01:49:05.714Z,11.10
2022-10-13T01:51:33.871Z,11.10
2022-10-13T01:54:00.608Z,11.00
2022-10-13T01:56:27.292Z,11.00
2022-10-13T01:58:56.538Z,11.00
2022-10-13T02:01:42.600Z,11.10
2022-10-13T02:04:34.349Z,10.80
2022-10-13T02:07:11.582Z,10.80
2022-10-13T02:10:06.986Z,10.90
2022-10-13T02:12:44.392Z,10.80
2022-10-13T02:15:16.088Z,10.80
2022-10-13T02:17:42.804Z,10.60
2022-10-13T02:20:11.089Z,10.60
2022-10-13T02:22:42.898Z,10.60
2022-10-13T02:25:09.849Z,10.60
2022-10-13T02:27:36.545Z,10.50
2022-10-13T02:30:05.025Z,10.50
2022-10-13T02:32:31.838Z,10.50
2022-10-13T02:34:58.503Z,10.50
2022-10-13T02:37:25.814Z,10.60
2022-10-13T02:39:52.882Z,10.80
2022-10-13T02:42:19.821Z,10.90
2022-10-13T02:44:46.787Z,10.90
2022-10-13T02:47:13.514Z,11.00
2022-10-13T02:49:40.243Z,11.00
2022-10-13T02:52:07.000Z,11.00
2022-10-13T02:54:33.671Z,11.10
2022-10-13T02:57:00.360Z,11.00
2022-10-13T02:59:27.030Z,10.80
2022-10-13T03:01:53.698Z,10.70
2022-10-13T03:04:20.408Z,10.70
2022-10-13T03:06:47.049Z,10.80
2022-10-13T03:09:13.804Z,10.90
2022-10-13T03:11:40.548Z,10.90
2022-10-13T03:14:07.289Z,10.90
2022-10-13T03:16:33.908Z,10.80
2022-10-13T03:19:00.674Z,10.70
2022-10-13T03:21:27.303Z,10.50
2022-10-13T03:23:54.069Z,10.50
2022-10-13T03:26:20.750Z,10.60
2022-10-13T03:28:51.739Z,10.70
2022-10-13T03:31:18.852Z,10.80
2022-10-13T03:33:46.170Z,10.80
2022-10-13T03:36:16.199Z,10.80
2022-10-13T03:38:43.756Z,10.80
2022-10-13T03:41:13.468Z,10.40
2022-10-13T03:43:41.213Z,10.40
2022-10-13T03:46:08.989Z,10.30
2022-10-13T03:48:36.438Z,10.20
2022-10-13T03:51:12.664Z,10.20
2022-10-13T03:53:39.585Z,10.20
2022-10-13T03:56:07.784Z,10.20
2022-10-13T03:58:35.067Z,10.40
2022-10-13T04:01:05.974Z,10.40
2022-10-13T04:03:34.883Z,10.40
2022-10-13T04:06:03.754Z,10.40
2022-10-13T04:08:31.648Z,10.40
2022-10-13T04:11:03.493Z,10.50
2022-10-13T04:13:30.793Z,10.60
2022-10-13T04:16:05.819Z,10.60
2022-10-13T04:18:33.067Z,10.50
2022-10-13T04:20:59.993Z,10.60
2022-10-13T04:23:26.684Z,10.80
2022-10-13T04:25:53.332Z,10.70
2022-10-13T04:28:19.981Z,10.60
2022-10-13T04:30:49.372Z,10.60
2022-10-13T04:33:16.699Z,10.50
2022-10-13T04:35:43.378Z,10.60
2022-10-13T04:38:10.016Z,10.60
2022-10-13T04:40:36.812Z,10.60
2022-10-13T04:43:03.660Z,10.60
2022-10-13T04:45:30.744Z,10.70
2022-10-13T04:47:57.477Z,10.60
2022-10-13T04:50:24.198Z,10.60
2022-10-13T04:52:50.890Z,10.60
2022-10-13T04:55:17.770Z,10.70
2022-10-13T04:57:44.471Z,10.80
2022-10-13T05:00:11.911Z,10.90
2022-10-13T05:02:38.787Z,10.80
2022-10-13T05:05:06.036Z,10.90
2022-10-13T05:07:32.943Z,10.80
2022-10-13T05:09:59.746Z,10.80
2022-10-13T05:12:26.400Z,10.70
2022-10-13T05:14:53.102Z,10.60
2022-10-13T05:17:19.776Z,10.60
2022-10-13T05:19:46.510Z,10.60
2022-10-13T05:22:13.232Z,10.50
2022-10-13T05:24:40.810Z,10.50
2022-10-13T05:27:11.070Z,10.50
2022-10-13T05:29:37.977Z,10.50
2022-10-13T05:32:05.659Z,10.50
2022-10-13T05:34:32.848Z,10.60
2022-10-13T05:37:00.538Z,10.60
2022-10-13T05:39:27.414Z,10.60
2022-10-13T05:41:54.170Z,10.60
2022-10-13T05:44:21.747Z,10.60
2022-10-13T05:46:48.502Z,10.60
2022-10-13T05:49:15.757Z,10.60
2022-10-13T05:51:47.109Z,10.60
2022-10-13T05:54:24.382Z,10.70
2022-10-13T05:56:55.055Z,10.70
2022-10-13T05:59:26.937Z,10.70
2022-10-13T06:01:54.765Z,10.70
2022-10-13T06:04:26.836Z,10.70
2022-10-13T06:06:53.579Z,10.80
2022-10-13T06:09:20.431Z,10.80
2022-10-13T06:11:47.244Z,10.70
2022-10-13T06:14:13.988Z,10.60
2022-10-13T06:16:41.441Z,10.70
2022-10-13T06:19:08.310Z,10.80
2022-10-13T06:21:35.934Z,10.80
2022-10-13T06:24:03.213Z,10.90
2022-10-13T06:26:30.066Z,11.00
2022-10-13T06:28:59.540Z,11.00
2022-10-13T06:31:27.018Z,11.00
2022-10-13T06:33:54.149Z,11.00
2022-10-13T06:36:20.966Z,11.10
2022-10-13T06:38:47.779Z,11.10
2022-10-13T06:41:14.842Z,11.20
2022-10-13T06:43:42.107Z,11.20
2022-10-13T06:46:08.937Z,11.20
2022-10-13T06:48:36.109Z,11.20
2022-10-13T06:51:04.751Z,11.20
2022-10-13T06:53:31.959Z,11.30
2022-10-13T06:56:00.288Z,11.30
2022-10-13T06:58:27.665Z,11.30
2022-10-13T07:00:55.050Z,11.40
2022-10-13T07:03:22.169Z,11.40
2022-10-13T07:05:48.882Z,11.50
2022-10-13T07:08:15.813Z,11.50
2022-10-13T07:10:42.797Z,11.50
2022-10-13T07:13:09.548Z,11.60
2022-10-13T07:15:40.179Z,11.60
2022-10-13T07:18:07.457Z,11.60
2022-10-13T07:20:34.598Z,11.70
2022-10-13T07:23:01.615Z,11.70
2022-10-13T07:25:28.426Z,11.70
2022-10-13T07:27:55.194Z,11.70
2022-10-13T07:30:21.966Z,11.80
2022-10-13T07:32:48.959Z,11.80
2022-10-13T07:35:15.702Z,11.80
2022-10-13T07:37:42.345Z,11.90
2022-10-13T07:40:09.613Z,11.90
2022-10-13T07:42:36.354Z,12.00
2022-10-13T07:45:03.391Z,12.00
2022-10-13T07:47:30.164Z,12.10
2022-10-13T07:49:56.823Z,12.20
2022-10-13T07:52:23.804Z,12.20
2022-10-13T07:54:51.133Z,12.30
2022-10-13T07:57:18.193Z,12.40
2022-10-13T07:59:45.115Z,12.50
2022-10-13T08:02:11.810Z,12.50
2022-10-13T08:04:39.106Z,12.50
2022-10-13T08:07:06.651Z,12.60
2022-10-13T08:09:34.075Z,12.60
2022-10-13T08:12:01.917Z,12.60
2022-10-13T08:14:30.120Z,12.70
2022-10-13T08:17:00.845Z,12.70
2022-10-13T08:19:28.423Z,12.80
2022-10-13T08:21:59.920Z,12.80
2022-10-13T08:24:28.104Z,12.90
2022-10-13T08:26:55.181Z,13.00
2022-10-13T08:29:23.572Z,13.00
2022-10-13T08:31:53.199Z,13.00
2022-10-13T08:34:20.828Z,13.10
2022-10-13T08:36:47.666Z,13.10
2022-10-13T08:39:14.608Z,13.20
2022-10-13T08:41:44.141Z,13.20
2022-10-13T08:47:27.647Z,13.30
2022-10-13T08:50:00.323Z,13.40
2022-10-13T08:52:30.381Z,13.50
2022-10-13T08:54:58.353Z,13.50
2022-10-13T08:57:25.143Z,13.60
2022-10-13T08:59:52.609Z,13.60
2022-10-13T09:02:31.074Z,13.70
2022-10-13T09:05:02.333Z,13.80
2022-10-13T09:07:32.766Z,13.80
2022-10-13T09:09:59.607Z,13.90
2022-10-13T09:12:26.711Z,13.90
2022-10-13T09:15:12.584Z,14.00
2022-10-13T09:17:41.153Z,14.00
2022-10-13T09:20:24.396Z,14.20
2022-10-13T09:23:07.634Z,14.20
2022-10-13T09:25:45.487Z,14.30
2022-10-13T09:28:27.591Z,14.40
2022-10-13T09:31:04.988Z,14.50
2022-10-13T09:33:36.748Z,14.50
2022-10-13T09:36:03.436Z,14.50
2022-10-13T09:38:30.156Z,14.50
2022-10-13T09:41:22.041Z,14.60
2022-10-13T09:43:48.684Z,14.60
2022-10-13T09:46:25.497Z,14.60
2022-10-13T09:49:03.787Z,14.60
2022-10-13T09:51:33.593Z,14.60
2022-10-13T09:54:00.558Z,14.70
2022-10-13T09:56:59.416Z,14.70
2022-10-13T09:59:34.896Z,14.80
2022-10-13T10:02:19.479Z,14.80
2022-10-13T10:04:49.455Z,14.80
2022-10-13T10:07:21.874Z,14.90
2022-10-13T10:09:52.966Z,15.00
2022-10-13T10:12:27.664Z,15.00
2022-10-13T10:14:55.553Z,15.10
2022-10-13T10:17:43.816Z,15.20
2022-10-13T10:20:36.324Z,15.20
2022-10-13T10:23:07.712Z,15.20
2022-10-13T10:25:51.003Z,15.30
2022-10-13T10:28:34.516Z,15.30
2022-10-13T10:31:19.300Z,15.40
2022-10-13T10:34:04.480Z,15.60
2022-10-13T10:37:08.613Z,15.60
2022-10-13T10:40:01.320Z,15.70
2022-10-13T10:43:04.582Z,15.90
2022-10-13T10:45:39.262Z,15.90
2022-10-13T10:48:22.838Z,15.90
2022-10-13T10:50:52.227Z,16.00
2022-10-13T10:53:38.390Z,16.10
2022-10-13T10:56:19.476Z,16.20
2022-10-13T10:59:18.107Z,16.30
2022-10-13T11:01:49.441Z,16.30
2022-10-13T11:04:25.516Z,16.40
2022-10-13T11:06:52.270Z,16.40
2022-10-13T11:09:41.959Z,16.40
2022-10-13T11:12:21.481Z,16.40
2022-10-13T11:15:02.200Z,16.40
2022-10-13T11:17:32.526Z,16.50
2022-10-13T11:20:00.312Z,16.50
2022-10-13T11:22:30.935Z,16.50
2022-10-13T11:25:01.838Z,16.50
2022-10-13T11:27:38.140Z,16.60
2022-10-13T11:30:05.443Z,16.60
2022-10-13T11:32:34.903Z,16.60
2022-10-13T11:35:10.681Z,16.70
2022-10-13T11:38:13.999Z,16.70
2022-10-13T11:40:59.711Z,16.70
2022-10-13T11:43:32.610Z,16.70
2022-10-13T11:46:14.764Z,16.70
2022-10-13T11:49:05.769Z,16.70
2022-10-13T11:51:50.591Z,16.80
2022-10-13T11:54:39.413Z,16.80
2022-10-13T11:57:27.101Z,16.80
2022-10-13T11:59:56.246Z,16.80
2022-10-13T12:02:25.377Z,16.90
2022-10-13T12:05:18.874Z,17.00
2022-10-13T12:07:48.138Z,17.10
2022-10-13T12:10:28.221Z,17.20
2022-10-13T12:12:54.979Z,17.40
2022-10-13T12:15:35.268Z,17.70
2022-10-13T12:18:02.807Z,17.90
2022-10-13T12:20:32.279Z,18.00
2022-10-13T12:22:58.955Z,18.20
2022-10-13T12:25:29.342Z,18.30
2022-10-13T12:27:59.595Z,18.30
2022-10-13T12:30:35.828Z,18.20
2022-10-13T12:33:03.107Z,18.10
2022-10-13T12:35:32.994Z,18.00
2022-10-13T12:38:07.440Z,17.90
2022-10-13T12:40:34.815Z,17.90
2022-10-13T12:43:03.825Z,17.90
2022-10-13T12:45:34.396Z,17.90
2022-10-13T12:48:01.180Z,17.90
2022-10-13T12:50:30.910Z,17.90
2022-10-13T12:53:14.591Z,17.80
2022-10-13T12:55:47.361Z,17.80
2022-10-13T12:58:29.928Z,17.80
2022-10-13T13:01:09.500Z,17.70
2022-10-13T13:03:37.402Z,17.70
2022-10-13T13:06:16.301Z,17.70
2022-10-13T13:08:43.311Z,17.70
2022-10-13T13:11:24.711Z,17.70
2022-10-13T13:13:51.563Z,17.80
2022-10-13T13:16:21.089Z,17.70
2022-10-13T13:18:49.594Z,17.70
2022-10-13T13:21:19.409Z,17.70
2022-10-13T13:23:52.783Z,17.70
2022-10-13T13:26:23.199Z,17.70
2022-10-13T13:28:52.441Z,17.60
2022-10-13T13:31:22.381Z,17.60
2022-10-13T13:33:49.790Z,17.60
2022-10-13T13:36:26.478Z,17.60
2022-10-13T13:38:54.593Z,17.50
2022-10-13T13:41:21.590Z,17.60
2022-10-13T13:43:49.797Z,17.50
2022-10-13T13:46:20.397Z,17.50
2022-10-13T13:48:47.339Z,17.40
2022-10-13T13:51:14.294Z,17.40
2022-10-13T13:53:41.005Z,17.40
2022-10-13T13:56:15.825Z,17.40
2022-10-13T13:58:43.426Z,17.30
2022-10-13T14:01:11.360Z,17.30
2022-10-13T14:03:38.697Z,17.30
2022-10-13T14:06:05.917Z,17.30
2022-10-13T14:08:34.674Z,17.20
2022-10-13T14:11:05.395Z,17.20
2022-10-13T14:13:32.280Z,17.20
2022-10-13T14:16:00.478Z,17.20
2022-10-13T14:18:27.949Z,17.20
2022-10-13T14:20:54.808Z,17.20
2022-10-13T14:23:21.569Z,17.20
2022-10-13T14:25:48.296Z,17.20
2022-10-13T14:28:18.173Z,17.10
2022-10-13T14:30:45.292Z,17.10
2022-10-13T14:33:12.038Z,17.20
2022-10-13T14:35:38.723Z,17.20
2022-10-13T14:38:05.393Z,17.20
2022-10-13T14:40:32.022Z,17.20
2022-10-13T14:42:58.779Z,17.20
2022-10-13T14:45:25.471Z,17.10
2022-10-13T14:47:53.656Z,17.20
2022-10-13T14:50:20.498Z,17.20
2022-10-13T14:52:47.250Z,17.20
2022-10-13T14:55:13.982Z,17.20
2022-10-13T14:57:40.728Z,17.10
2022-10-13T15:00:07.982Z,17.10
2022-10-13T15:02:34.769Z,17.10
2022-10-13T15:05:01.446Z,17.00
2022-10-13T15:07:28.221Z,17.00
2022-10-13T15:10:04.833Z,17.00
2022-10-13T15:12:32.013Z,17.00
2022-10-13T15:14:58.678Z,16.90
2022-10-13T15:17:25.803Z,16.90
2022-10-13T15:19:52.502Z,16.90
2022-10-13T15:22:19.682Z,16.80
2022-10-13T15:24:46.621Z,16.80
2022-10-13T15:27:13.420Z,16.80
2022-10-13T15:29:40.139Z,16.70
2022-10-13T15:32:09.882Z,16.70
2022-10-13T15:34:38.815Z,16.60
2022-10-13T15:37:05.887Z,16.60
2022-10-13T15:39:32.601Z,16.60
2022-10-13T15:41:59.488Z,16.50
2022-10-13T15:44:26.837Z,16.50
2022-10-13T15:47:07.380Z,16.50
2022-10-13T15:49:39.157Z,16.50
2022-10-13T15:52:06.025Z,16.40
2022-10-13T15:54:32.851Z,16.40
2022-10-13T15:56:59.968Z,16.40
2022-10-13T15:59:26.616Z,16.40
2022-10-13T16:01:53.295Z,16.30
2022-10-13T16:04:20.011Z,16.30
2022-10-13T16:06:46.766Z,16.30
2022-10-13T16:09:13.482Z,16.30
2022-10-13T16:11:40.239Z,16.20
2022-10-13T16:14:07.004Z,16.20
2022-10-13T16:16:33.772Z,16.20
2022-10-13T16:19:00.582Z,16.10
2022-10-13T16:21:27.485Z,16.00
2022-10-13T16:23:54.342Z,16.00
2022-10-13T16:26:22.220Z,16.00
2022-10-13T16:28:48.982Z,16.00
2022-10-13T16:31:17.129Z,15.90
2022-10-13T16:33:45.271Z,15.90
2022-10-13T16:36:14.901Z,15.90
2022-10-13T16:38:43.103Z,15.90
2022-10-13T16:41:15.468Z,15.90
2022-10-13T16:43:43.829Z,15.80
2022-10-13T16:46:13.439Z,15.80
2022-10-13T16:48:41.670Z,15.70
2022-10-13T16:51:12.084Z,15.70
2022-10-13T16:53:39.218Z,15.70
2022-10-13T16:56:06.966Z,15.60
2022-10-13T16:58:34.465Z,15.50
2022-10-13T17:01:08.647Z,15.50
2022-10-13T17:03:36.503Z,15.60
2022-10-13T17:06:03.532Z,15.60
2022-10-13T17:08:31.060Z,15.60
2022-10-13T17:10:59.948Z,15.60
2022-10-13T17:13:26.951Z,15.50
2022-10-13T17:15:55.572Z,15.50
2022-10-13T17:18:22.527Z,15.50
2022-10-13T17:20:53.361Z,15.50
2022-10-13T17:23:20.450Z,15.50
2022-10-13T17:25:47.862Z,15.50
2022-10-13T17:28:15.234Z,15.40
2022-10-13T17:30:42.088Z,15.40
2022-10-13T17:33:09.302Z,15.40
2022-10-13T17:35:36.116Z,15.40
2022-10-13T17:38:02.968Z,15.30
2022-10-13T17:40:32.506Z,15.30
2022-10-13T17:42:59.335Z,15.30
2022-10-13T17:45:26.860Z,15.30
2022-10-13T17:47:53.618Z,15.30
2022-10-13T17:50:20.684Z,15.30
2022-10-13T17:52:48.504Z,15.30
2022-10-13T17:55:15.282Z,15.30
2022-10-13T17:57:42.228Z,15.20
2022-10-13T18:00:09.657Z,15.20
2022-10-13T18:02:36.428Z,15.20
2022-10-13T18:05:03.324Z,15.20
2022-10-13T18:07:30.043Z,15.20
2022-10-13T18:09:56.873Z,15.20
2022-10-13T18:12:23.792Z,15.20
2022-10-13T18:14:50.604Z,15.20
2022-10-13T18:17:17.675Z,15.20
2022-10-13T18:19:44.698Z,15.20
2022-10-13T18:22:11.750Z,15.20
2022-10-13T18:24:39.382Z,15.10
2022-10-13T18:27:06.263Z,15.10
2022-10-13T18:29:33.075Z,15.10
2022-10-13T18:31:59.871Z,15.10
2022-10-13T18:34:26.875Z,15.10
2022-10-13T18:36:56.838Z,15.10
2022-10-13T18:39:26.604Z,15.10
2022-10-13T18:41:55.265Z,15.00
2022-10-13T18:44:23.203Z,15.00
2022-10-13T18:46:51.582Z,15.00
2022-10-13T18:49:20.626Z,15.00
2022-10-13T18:51:50.540Z,15.00
2022-10-13T18:54:17.282Z,15.00
2022-10-13T18:56:43.986Z,15.00
2022-10-13T18:59:10.971Z,15.00
2022-10-13T19:01:38.850Z,15.00
2022-10-13T19:04:06.431Z,15.00
2022-10-13T19:06:33.448Z,14.90
2022-10-13T19:09:03.565Z,14.90
2022-10-13T19:11:31.528Z,14.90
2022-10-13T19:13:59.402Z,14.90
2022-10-13T19:16:28.227Z,14.90
2022-10-13T19:18:55.842Z,14.90
2022-10-13T19:21:23.718Z,14.90
2022-10-13T19:23:50.895Z,14.90
2022-10-13T19:26:20.911Z,14.90
2022-10-13T19:28:48.062Z,14.90
2022-10-13T19:31:18.066Z,14.90
2022-10-13T19:33:47.233Z,14.90
2022-10-13T19:36:44.463Z,14.90
2022-10-13T19:39:23.700Z,14.90
2022-10-13T19:41:52.638Z,14.90
2022-10-13T19:44:21.055Z,14.90
2022-10-13T19:46:48.144Z,14.80
2022-10-13T19:49:16.897Z,14.80
2022-10-13T19:51:43.628Z,14.80
2022-10-13T19:54:11.140Z,14.80
2022-10-13T19:56:38.432Z,14.80
2022-10-13T19:59:05.345Z,14.80
2022-10-13T20:01:39.801Z,14.80
2022-10-13T20:04:07.737Z,14.80
2022-10-13T20:06:34.780Z,14.80
2022-10-13T20:09:01.778Z,14.80
2022-10-13T20:11:28.483Z,14.70
2022-10-13T20:13:55.240Z,14.70
2022-10-13T20:16:24.298Z,14.70
2022-10-13T20:18:56.844Z,14.70
2022-10-13T20:21:25.066Z,14.70
2022-10-13T20:23:51.988Z,14.70
2022-10-13T20:26:19.435Z,14.70
2022-10-13T20:28:47.833Z,14.70
2022-10-13T20:31:16.063Z,14.70
2022-10-13T20:33:42.972Z,14.70
2022-10-13T20:36:13.083Z,14.70
2022-10-13T20:38:40.207Z,14.70
2022-10-13T20:41:27.738Z,14.70
2022-10-13T20:43:56.096Z,14.70
2022-10-13T20:46:23.871Z,14.60
2022-10-13T20:49:09.761Z,14.60
2022-10-13T20:51:37.521Z,14.60
2022-10-13T20:54:04.361Z,14.60
2022-10-13T20:56:31.091Z,14.60
2022-10-13T20:59:03.179Z,14.60
2022-10-13T21:01:29.866Z,14.60
2022-10-13T21:03:56.622Z,14.50
2022-10-13T21:06:24.959Z,14.50
2022-10-13T21:08:52.671Z,14.50
2022-10-13T21:11:20.915Z,14.50
2022-10-13T21:13:48.354Z,14.50
2022-10-13T21:16:21.310Z,14.50
2022-10-13T21:18:51.452Z,14.50
2022-10-13T21:21:20.857Z,14.50
2022-10-13T21:24:01.278Z,14.40
2022-10-13T21:26:29.888Z,14.50
2022-10-13T21:28:57.162Z,14.40
2022-10-13T21:31:25.132Z,14.40
2022-10-13T21:33:52.268Z,14.50
2022-10-13T21:36:21.765Z,14.50
2022-10-13T21:38:51.854Z,14.50
2022-10-13T21:41:18.510Z,14.50
2022-10-13T21:43:45.353Z,14.50
2022-10-13T21:46:24.017Z,14.50
2022-10-13T21:48:57.124Z,14.40
2022-10-13T21:51:30.145Z,14.40
2022-10-13T21:53:59.859Z,14.40
2022-10-13T21:56:27.897Z,14.40
2022-10-13T21:58:55.927Z,14.40
2022-10-13T22:01:23.456Z,14.40
2022-10-13T22:03:54.634Z,14.40
2022-10-13T22:06:21.346Z,14.40
2022-10-13T22:08:50.437Z,14.40
2022-10-13T22:11:18.892Z,14.40
2022-10-13T22:13:45.983Z,14.40
2022-10-13T22:16:19.717Z,14.40
2022-10-13T22:18:47.122Z,14.40
2022-10-13T22:21:17.534Z,14.30
2022-10-13T22:23:45.723Z,14.40
2022-10-13T22:26:13.363Z,14.30
2022-10-13T22:28:40.484Z,14.30
2022-10-13T22:31:12.742Z,14.30
2022-10-13T22:33:42.062Z,14.30
2022-10-13T22:36:19.321Z,14.30
2022-10-13T22:38:47.118Z,14.30
2022-10-13T22:41:15.116Z,14.20
2022-10-13T22:43:44.303Z,14.20
2022-10-13T22:46:15.520Z,14.20
2022-10-13T22:48:42.555Z,14.20
2022-10-13T22:51:10.296Z,14.20
2022-10-13T22:53:37.462Z,14.20
2022-10-13T22:56:09.087Z,14.20
2022-10-13T22:58:36.185Z,14.20
2022-10-13T23:01:08.582Z,14.20
2022-10-13T23:03:36.415Z,14.20
2022-10-13T23:06:03.841Z,14.20
2022-10-13T23:08:30.950Z,14.20
2022-10-13T23:10:57.906Z,14.20
2022-10-13T23:13:24.974Z,14.20
2022-10-13T23:15:51.704Z,14.20
2022-10-13T23:18:18.469Z,14.30
2022-10-13T23:20:45.106Z,14.20
2022-10-13T23:23:11.919Z,14.20
2022-10-13T23:25:38.707Z,14.20
2022-10-13T23:28:05.486Z,14.20
2022-10-13T23:30:32.256Z,14.20
2022-10-13T23:32:58.927Z,14.20
2022-10-13T23:35:25.876Z,14.20
2022-10-13T23:37:53.002Z,14.20
2022-10-13T23:40:20.050Z,14.20
2022-10-13T23:42:46.712Z,14.20
2022-10-13T23:45:13.701Z,14.20
2022-10-13T23:47:40.624Z,14.20
2022-10-13T23:50:07.495Z,14.20
2022-10-13T23:52:34.206Z,14.20
2022-10-13T23:55:00.932Z,14.20
2022-10-13T23:57:29.848Z,14.20
2022-10-13T23:59:56.641Z,14.20
